MST,Max TemperatureF,Mean TemperatureF,Min TemperatureF,Max Dew PointF,MeanDew PointF,Min DewpointF,Max Humidity, Mean Humidity, Min Humidity, Max Sea Level PressureIn, Mean Sea Level PressureIn, Min Sea Level PressureIn, Max VisibilityMiles, Mean VisibilityMiles, Min VisibilityMiles, Max Wind SpeedMPH, Mean Wind SpeedMPH, Max Gust SpeedMPH,PrecipitationIn, CloudCover, Events, WindDirDegrees
2012-11-1,62,49,35,27,22,15,59,38,17,29.99,29.94,29.85,10,10,10,15,8,,0.00,2,,234
2012-11-2,52,42,32,28,23,15,70,47,24,30.17,30.06,29.95,10,10,10,20,10,27,0.00,1,,255
2012-11-3,52,39,26,24,20,15,75,50,24,30.28,30.22,30.14,10,10,10,16,9,,0.00,0,,252
2012-11-4,57,47,37,28,25,21,55,44,32,30.37,30.28,30.21,10,10,10,23,14,30,0.00,0,,252
2012-11-5,59,48,37,32,30,27,70,53,36,30.35,30.29,30.21,10,10,10,24,18,32,0.00,0,,259
2012-11-6,60,49,38,32,29,25,70,49,27,30.33,30.24,30.15,10,10,10,18,13,,0.00,0,,242
2012-11-7,62,46,30,29,23,19,70,45,19,30.16,30.01,29.88,10,10,10,18,7,24,0.00,0,,226
2012-11-8,60,47,34,23,20,18,52,36,19,29.87,29.69,29.51,10,10,10,28,16,40,0.00,0,,178
2012-11-9,54,41,28,39,31,21,92,62,31,29.63,29.54,29.40,10,5,0,21,12,56,0.07,7,Fog-Rain-Snow,231
2012-11-10,28,21,14,25,18,9,96,85,73,30.00,29.71,29.56,10,8,1,22,16,29,T,5,Snow,248
2012-11-11,21,17,12,14,10,7,88,78,67,30.47,30.18,30.00,10,9,2,33,23,44,T,3,Snow,254
2012-11-12,28,22,15,15,11,8,80,65,50,30.60,30.50,30.42,10,10,10,23,13,36,0.00,3,,236
2012-11-13,37,30,23,25,22,15,78,69,59,30.43,30.38,30.29,10,10,10,20,10,31,0.00,4,,242
2012-11-14,41,33,24,29,25,20,81,65,48,30.33,30.27,30.18,10,10,4,15,6,20,T,5,Snow,258
2012-11-15,43,34,24,30,27,22,92,75,57,30.40,30.33,30.28,10,6,0,10,4,14,0.00,4,Fog,234
2012-11-16,42,32,21,27,24,19,96,74,51,30.27,30.19,30.11,10,10,8,10,5,13,0.00,5,,260
2012-11-17,48,41,33,33,30,25,82,71,60,30.17,30.08,29.96,10,10,10,13,6,15,0.00,6,,179
2012-11-18,50,42,34,34,32,29,100,73,46,30.14,30.03,29.94,10,9,4,25,9,30,0.10,6,Rain-Snow,244
2012-11-19,48,41,33,34,32,29,100,73,46,30.30,30.23,30.13,10,9,0,15,5,20,T,3,Fog-Rain,228
2012-11-20,53,40,27,31,27,25,85,60,35,30.31,30.19,30.06,10,10,10,15,5,18,0.00,0,,175
2012-11-21,55,42,29,30,25,23,78,53,27,30.07,29.98,29.88,10,10,10,20,8,24,0.00,2,,231
2012-11-22,39,32,24,30,15,9,82,57,32,30.56,30.30,29.99,10,10,7,28,16,33,T,2,Snow,274
2012-11-23,45,32,18,17,13,8,74,48,22,30.60,30.50,30.34,10,10,10,16,8,18,0.00,0,,244
2012-11-24,52,38,23,18,16,13,63,43,22,30.31,30.15,29.98,10,10,10,33,12,41,0.00,0,,237
2012-11-25,44,37,30,26,19,13,64,49,33,30.08,29.95,29.88,10,10,10,36,13,44,T,2,Rain,239
2012-11-26,37,30,22,21,19,17,88,68,48,30.35,30.27,30.12,10,10,10,17,6,20,0.00,3,,223
2012-11-27,48,33,18,20,15,13,81,53,24,30.40,30.32,30.25,10,10,10,21,7,26,0.00,0,,240
2012-11-28,50,37,23,16,14,11,60,42,24,30.33,30.19,30.04,10,10,10,10,3,12,0.00,0,,150
2012-11-29,49,41,32,23,20,16,59,47,34,30.12,30.07,30.00,10,10,10,25,10,31,0.00,1,,220
2012-11-30,47,38,29,28,24,20,69,56,42,30.05,29.96,29.87,10,10,10,16,6,21,0.00,2,,232